Autoridad de Aeronautica Civil de Panamá


taf




 

AERÓDROMOS

 

PRONOSTICO DE AERÓDROMO
TAF

AEROPUERTO INTL. DE TOCUMEN:


TAF MPTO 220500Z 2206/2312 04008KT 9999 FEW020 TEMPO 2208/2211 VRB02KT CAVOK TEMPO 2218/2222 04014KT
AEROPUERTO MARCOS A. GELABERT:


TAF AMD MPMG 220300Z 2200/2212 CNL=
AEROPUERTO ENRIQUE MALEK:


TAF AMD MPDA 220100Z 2200/2212 CNL=
AEROPUERTO PANAMA PACIFICO:


TAF AMD MPPA 220300Z 2200/2306 CNL=
AEROPUERTO SCARLETT MARTÍNEZ:


TAF AMD MPSM 212100Z 2118/2224 CNL=


Contador: 4855